sensor_id;sensor_type;location;lat;lon;timestamp;P1;durP1;ratioP1;P2;durP2;ratioP2
22107;SDS011;11220;48.812;9.128;2023-07-09T00:01:04;1.05;;;0.95;;
22107;SDS011;11220;48.812;9.128;2023-07-09T00:03:33;1.17;;;0.88;;
22107;SDS011;11220;48.812;9.128;2023-07-09T00:05:59;1.05;;;0.80;;
22107;SDS011;11220;48.812;9.128;2023-07-09T00:08:28;0.95;;;0.70;;
22107;SDS011;11220;48.812;9.128;2023-07-09T00:10:56;1.27;;;1.00;;
22107;SDS011;11220;48.812;9.128;2023-07-09T00:13:26;0.93;;;0.80;;
22107;SDS011;11220;48.812;9.128;2023-07-09T00:15:53;1.58;;;1.00;;
22107;SDS011;11220;48.812;9.128;2023-07-09T00:18:22;1.60;;;1.10;;
22107;SDS011;11220;48.812;9.128;2023-07-09T00:20:48;1.05;;;0.75;;
22107;SDS011;11220;48.812;9.128;2023-07-09T00:23:14;1.00;;;0.90;;
22107;SDS011;11220;48.812;9.128;2023-07-09T00:25:40;0.98;;;0.70;;
22107;SDS011;11220;48.812;9.128;2023-07-09T00:28:18;1.42;;;1.00;;
22107;SDS011;11220;48.812;9.128;2023-07-09T00:30:45;1.13;;;1.00;;
22107;SDS011;11220;48.812;9.128;2023-07-09T00:33:11;1.13;;;0.82;;
22107;SDS011;11220;48.812;9.128;2023-07-09T00:35:44;1.13;;;0.70;;
22107;SDS011;11220;48.812;9.128;2023-07-09T00:38:21;1.38;;;0.85;;
22107;SDS011;11220;48.812;9.128;2023-07-09T00:41:23;0.80;;;0.70;;
22107;SDS011;11220;48.812;9.128;2023-07-09T00:43:44;1.05;;;0.90;;
22107;SDS011;11220;48.812;9.128;2023-07-09T00:48:46;1.42;;;0.90;;
22107;SDS011;11220;48.812;9.128;2023-07-09T00:51:16;1.05;;;0.88;;
22107;SDS011;11220;48.812;9.128;2023-07-09T00:56:16;1.05;;;0.90;;
22107;SDS011;11220;48.812;9.128;2023-07-09T00:58:50;1.20;;;0.90;;
22107;SDS011;11220;48.812;9.128;2023-07-09T01:01:18;1.52;;;0.80;;
22107;SDS011;11220;48.812;9.128;2023-07-09T01:03:48;1.30;;;0.75;;
22107;SDS011;11220;48.812;9.128;2023-07-09T01:06:18;1.25;;;0.90;;
22107;SDS011;11220;48.812;9.128;2023-07-09T01:08:57;1.33;;;0.90;;
22107;SDS011;11220;48.812;9.128;2023-07-09T01:11:25;1.08;;;0.90;;
22107;SDS011;11220;48.812;9.128;2023-07-09T01:13:51;1.58;;;0.90;;
22107;SDS011;11220;48.812;9.128;2023-07-09T01:16:20;1.25;;;0.93;;
22107;SDS011;11220;48.812;9.128;2023-07-09T01:18:49;0.90;;;0.82;;
22107;SDS011;11220;48.812;9.128;2023-07-09T01:21:15;1.23;;;0.98;;
22107;SDS011;11220;48.812;9.128;2023-07-09T01:23:44;1.30;;;0.93;;
22107;SDS011;11220;48.812;9.128;2023-07-09T01:26:12;1.08;;;0.82;;
22107;SDS011;11220;48.812;9.128;2023-07-09T01:28:40;1.00;;;0.70;;
22107;SDS011;11220;48.812;9.128;2023-07-09T01:31:09;1.43;;;1.00;;
22107;SDS011;11220;48.812;9.128;2023-07-09T01:33:36;0.93;;;0.80;;
22107;SDS011;11220;48.812;9.128;2023-07-09T01:36:05;1.63;;;0.80;;
22107;SDS011;11220;48.812;9.128;2023-07-09T01:38:34;1.17;;;0.93;;
22107;SDS011;11220;48.812;9.128;2023-07-09T01:41:01;1.63;;;0.90;;
22107;SDS011;11220;48.812;9.128;2023-07-09T01:43:29;0.90;;;0.68;;
22107;SDS011;11220;48.812;9.128;2023-07-09T01:45:54;1.35;;;0.73;;
22107;SDS011;11220;48.812;9.128;2023-07-09T01:48:22;0.88;;;0.82;;
22107;SDS011;11220;48.812;9.128;2023-07-09T01:50:49;1.75;;;0.90;;
22107;SDS011;11220;48.812;9.128;2023-07-09T01:53:16;1.50;;;0.93;;
22107;SDS011;11220;48.812;9.128;2023-07-09T01:55:44;1.25;;;0.90;;
22107;SDS011;11220;48.812;9.128;2023-07-09T01:58:09;0.85;;;0.68;;
22107;SDS011;11220;48.812;9.128;2023-07-09T02:00:36;1.40;;;0.90;;
22107;SDS011;11220;48.812;9.128;2023-07-09T02:03:02;0.95;;;0.75;;
22107;SDS011;11220;48.812;9.128;2023-07-09T02:05:30;1.05;;;0.80;;
22107;SDS011;11220;48.812;9.128;2023-07-09T02:07:57;1.30;;;1.00;;
22107;SDS011;11220;48.812;9.128;2023-07-09T02:10:23;1.45;;;1.00;;
22107;SDS011;11220;48.812;9.128;2023-07-09T02:12:48;1.38;;;1.00;;
22107;SDS011;11220;48.812;9.128;2023-07-09T02:15:14;0.82;;;0.70;;
22107;SDS011;11220;48.812;9.128;2023-07-09T02:17:40;1.10;;;0.85;;
22107;SDS011;11220;48.812;9.128;2023-07-09T02:20:07;1.75;;;0.88;;
22107;SDS011;11220;48.812;9.128;2023-07-09T02:22:34;0.70;;;0.60;;
22107;SDS011;11220;48.812;9.128;2023-07-09T02:25:01;0.57;;;0.57;;
22107;SDS011;11220;48.812;9.128;2023-07-09T02:27:27;1.27;;;0.82;;
22107;SDS011;11220;48.812;9.128;2023-07-09T02:29:53;1.00;;;0.80;;
22107;SDS011;11220;48.812;9.128;2023-07-09T02:32:20;0.90;;;0.85;;
22107;SDS011;11220;48.812;9.128;2023-07-09T02:34:48;1.27;;;0.82;;
22107;SDS011;11220;48.812;9.128;2023-07-09T02:37:17;0.60;;;0.60;;
22107;SDS011;11220;48.812;9.128;2023-07-09T02:39:45;0.82;;;0.80;;
22107;SDS011;11220;48.812;9.128;2023-07-09T02:42:11;0.80;;;0.60;;
22107;SDS011;11220;48.812;9.128;2023-07-09T02:44:38;0.80;;;0.70;;
22107;SDS011;11220;48.812;9.128;2023-07-09T02:47:05;1.25;;;0.80;;
22107;SDS011;11220;48.812;9.128;2023-07-09T02:49:30;1.20;;;0.80;;
22107;SDS011;11220;48.812;9.128;2023-07-09T02:51:56;1.00;;;0.90;;
22107;SDS011;11220;48.812;9.128;2023-07-09T02:54:21;0.80;;;0.77;;
22107;SDS011;11220;48.812;9.128;2023-07-09T02:56:49;0.70;;;0.70;;
22107;SDS011;11220;48.812;9.128;2023-07-09T02:59:15;0.85;;;0.77;;
22107;SDS011;11220;48.812;9.128;2023-07-09T03:01:40;0.93;;;0.70;;
22107;SDS011;11220;48.812;9.128;2023-07-09T03:04:06;1.13;;;0.88;;
22107;SDS011;11220;48.812;9.128;2023-07-09T03:06:33;1.15;;;0.70;;
22107;SDS011;11220;48.812;9.128;2023-07-09T03:09:00;1.17;;;0.75;;
22107;SDS011;11220;48.812;9.128;2023-07-09T03:11:27;1.88;;;1.00;;
22107;SDS011;11220;48.812;9.128;2023-07-09T03:13:58;1.45;;;0.70;;
22107;SDS011;11220;48.812;9.128;2023-07-09T03:16:25;0.95;;;0.70;;
22107;SDS011;11220;48.812;9.128;2023-07-09T03:18:52;0.93;;;0.85;;
22107;SDS011;11220;48.812;9.128;2023-07-09T03:21:19;0.60;;;0.60;;
22107;SDS011;11220;48.812;9.128;2023-07-09T03:23:45;0.80;;;0.70;;
22107;SDS011;11220;48.812;9.128;2023-07-09T03:26:10;0.75;;;0.73;;
22107;SDS011;11220;48.812;9.128;2023-07-09T03:28:36;0.70;;;0.70;;
22107;SDS011;11220;48.812;9.128;2023-07-09T03:31:02;0.80;;;0.77;;
22107;SDS011;11220;48.812;9.128;2023-07-09T03:33:27;1.40;;;0.75;;
22107;SDS011;11220;48.812;9.128;2023-07-09T03:35:53;0.80;;;0.68;;
22107;SDS011;11220;48.812;9.128;2023-07-09T03:38:19;1.20;;;0.90;;
22107;SDS011;11220;48.812;9.128;2023-07-09T03:40:45;1.50;;;0.93;;
22107;SDS011;11220;48.812;9.128;2023-07-09T03:43:10;0.90;;;0.60;;
22107;SDS011;11220;48.812;9.128;2023-07-09T03:45:36;1.52;;;0.77;;
22107;SDS011;11220;48.812;9.128;2023-07-09T03:48:03;1.60;;;0.75;;
22107;SDS011;11220;48.812;9.128;2023-07-09T03:50:29;1.30;;;1.02;;
22107;SDS011;11220;48.812;9.128;2023-07-09T03:52:55;0.68;;;0.60;;
22107;SDS011;11220;48.812;9.128;2023-07-09T03:55:21;1.00;;;0.85;;
22107;SDS011;11220;48.812;9.128;2023-07-09T03:57:46;1.27;;;1.08;;
22107;SDS011;11220;48.812;9.128;2023-07-09T04:00:12;0.93;;;0.70;;
22107;SDS011;11220;48.812;9.128;2023-07-09T04:02:39;1.27;;;0.73;;
22107;SDS011;11220;48.812;9.128;2023-07-09T04:05:06;1.10;;;0.73;;
22107;SDS011;11220;48.812;9.128;2023-07-09T04:07:33;0.95;;;0.70;;
22107;SDS011;11220;48.812;9.128;2023-07-09T04:09:59;0.93;;;0.90;;
22107;SDS011;11220;48.812;9.128;2023-07-09T04:12:24;1.48;;;0.90;;
22107;SDS011;11220;48.812;9.128;2023-07-09T04:14:50;1.17;;;0.75;;
22107;SDS011;11220;48.812;9.128;2023-07-09T04:17:15;1.58;;;1.10;;
22107;SDS011;11220;48.812;9.128;2023-07-09T04:19:41;0.85;;;0.70;;
22107;SDS011;11220;48.812;9.128;2023-07-09T04:22:07;1.42;;;0.70;;
22107;SDS011;11220;48.812;9.128;2023-07-09T04:24:35;1.67;;;0.77;;
22107;SDS011;11220;48.812;9.128;2023-07-09T04:27:00;1.02;;;0.80;;
22107;SDS011;11220;48.812;9.128;2023-07-09T04:29:27;1.38;;;0.90;;
22107;SDS011;11220;48.812;9.128;2023-07-09T04:31:54;1.60;;;0.80;;
22107;SDS011;11220;48.812;9.128;2023-07-09T04:34:19;1.17;;;0.80;;
22107;SDS011;11220;48.812;9.128;2023-07-09T04:36:45;1.17;;;0.82;;
22107;SDS011;11220;48.812;9.128;2023-07-09T04:39:10;1.23;;;1.00;;
22107;SDS011;11220;48.812;9.128;2023-07-09T04:41:36;1.02;;;0.70;;
22107;SDS011;11220;48.812;9.128;2023-07-09T04:44:01;1.27;;;0.80;;
22107;SDS011;11220;48.812;9.128;2023-07-09T04:46:27;0.95;;;0.65;;
22107;SDS011;11220;48.812;9.128;2023-07-09T04:48:52;1.10;;;0.73;;
22107;SDS011;11220;48.812;9.128;2023-07-09T04:51:18;1.40;;;0.98;;
22107;SDS011;11220;48.812;9.128;2023-07-09T04:53:43;1.33;;;0.80;;
22107;SDS011;11220;48.812;9.128;2023-07-09T04:56:09;0.73;;;0.73;;
22107;SDS011;11220;48.812;9.128;2023-07-09T04:58:35;1.35;;;0.90;;
22107;SDS011;11220;48.812;9.128;2023-07-09T05:01:00;1.05;;;0.85;;
22107;SDS011;11220;48.812;9.128;2023-07-09T05:03:26;1.30;;;0.82;;
22107;SDS011;11220;48.812;9.128;2023-07-09T05:05:52;1.17;;;0.80;;
22107;SDS011;11220;48.812;9.128;2023-07-09T05:08:17;1.52;;;0.82;;
22107;SDS011;11220;48.812;9.128;2023-07-09T05:10:44;1.65;;;1.00;;
22107;SDS011;11220;48.812;9.128;2023-07-09T05:13:11;1.02;;;0.80;;
22107;SDS011;11220;48.812;9.128;2023-07-09T05:15:40;1.02;;;0.80;;
22107;SDS011;11220;48.812;9.128;2023-07-09T05:18:07;1.15;;;0.93;;
22107;SDS011;11220;48.812;9.128;2023-07-09T05:20:35;1.30;;;1.00;;
22107;SDS011;11220;48.812;9.128;2023-07-09T05:23:01;1.20;;;1.00;;
22107;SDS011;11220;48.812;9.128;2023-07-09T05:25:26;1.30;;;1.02;;
22107;SDS011;11220;48.812;9.128;2023-07-09T05:27:52;1.98;;;1.00;;
22107;SDS011;11220;48.812;9.128;2023-07-09T05:30:18;1.40;;;1.05;;
22107;SDS011;11220;48.812;9.128;2023-07-09T05:32:44;1.90;;;1.05;;
22107;SDS011;11220;48.812;9.128;2023-07-09T05:35:10;1.25;;;1.00;;
22107;SDS011;11220;48.812;9.128;2023-07-09T05:37:36;0.80;;;0.75;;
22107;SDS011;11220;48.812;9.128;2023-07-09T05:40:02;1.52;;;1.20;;
22107;SDS011;11220;48.812;9.128;2023-07-09T05:42:30;1.05;;;0.95;;
22107;SDS011;11220;48.812;9.128;2023-07-09T05:44:56;0.80;;;0.73;;
22107;SDS011;11220;48.812;9.128;2023-07-09T05:47:22;1.10;;;0.90;;
22107;SDS011;11220;48.812;9.128;2023-07-09T05:49:48;0.77;;;0.77;;
22107;SDS011;11220;48.812;9.128;2023-07-09T05:52:15;0.80;;;0.70;;
22107;SDS011;11220;48.812;9.128;2023-07-09T05:57:10;1.17;;;0.75;;
22107;SDS011;11220;48.812;9.128;2023-07-09T05:59:36;1.17;;;0.80;;
22107;SDS011;11220;48.812;9.128;2023-07-09T06:02:02;0.70;;;0.60;;
22107;SDS011;11220;48.812;9.128;2023-07-09T06:04:28;1.25;;;0.60;;
22107;SDS011;11220;48.812;9.128;2023-07-09T06:06:56;0.50;;;0.50;;
22107;SDS011;11220;48.812;9.128;2023-07-09T06:09:21;0.55;;;0.50;;
22107;SDS011;11220;48.812;9.128;2023-07-09T06:11:47;0.50;;;0.50;;
22107;SDS011;11220;48.812;9.128;2023-07-09T06:14:13;0.43;;;0.40;;
22107;SDS011;11220;48.812;9.128;2023-07-09T06:16:38;0.43;;;0.35;;
22107;SDS011;11220;48.812;9.128;2023-07-09T06:19:04;0.30;;;0.30;;
22107;SDS011;11220;48.812;9.128;2023-07-09T06:21:29;0.43;;;0.40;;
22107;SDS011;11220;48.812;9.128;2023-07-09T06:23:55;0.63;;;0.40;;
22107;SDS011;11220;48.812;9.128;2023-07-09T06:26:21;0.32;;;0.32;;
22107;SDS011;11220;48.812;9.128;2023-07-09T06:28:46;0.30;;;0.30;;
22107;SDS011;11220;48.812;9.128;2023-07-09T06:31:12;1.08;;;0.40;;
22107;SDS011;11220;48.812;9.128;2023-07-09T06:33:37;0.20;;;0.20;;
22107;SDS011;11220;48.812;9.128;2023-07-09T06:36:03;0.35;;;0.20;;
22107;SDS011;11220;48.812;9.128;2023-07-09T06:38:29;0.30;;;0.30;;
22107;SDS011;11220;48.812;9.128;2023-07-09T06:40:55;0.20;;;0.20;;
22107;SDS011;11220;48.812;9.128;2023-07-09T06:43:22;0.40;;;0.40;;
22107;SDS011;11220;48.812;9.128;2023-07-09T06:45:48;0.20;;;0.20;;
22107;SDS011;11220;48.812;9.128;2023-07-09T06:48:19;0.40;;;0.30;;
22107;SDS011;11220;48.812;9.128;2023-07-09T06:50:48;0.52;;;0.45;;
22107;SDS011;11220;48.812;9.128;2023-07-09T06:53:14;0.60;;;0.30;;
22107;SDS011;11220;48.812;9.128;2023-07-09T06:55:40;0.22;;;0.20;;
22107;SDS011;11220;48.812;9.128;2023-07-09T06:58:06;0.30;;;0.28;;
22107;SDS011;11220;48.812;9.128;2023-07-09T07:00:33;0.30;;;0.10;;
22107;SDS011;11220;48.812;9.128;2023-07-09T07:03:02;0.30;;;0.30;;
22107;SDS011;11220;48.812;9.128;2023-07-09T07:05:28;0.25;;;0.20;;
22107;SDS011;11220;48.812;9.128;2023-07-09T07:07:53;0.30;;;0.30;;
22107;SDS011;11220;48.812;9.128;2023-07-09T07:10:19;0.22;;;0.20;;
22107;SDS011;11220;48.812;9.128;2023-07-09T07:12:46;0.43;;;0.20;;
22107;SDS011;11220;48.812;9.128;2023-07-09T07:15:13;0.28;;;0.20;;
22107;SDS011;11220;48.812;9.128;2023-07-09T07:17:41;0.30;;;0.20;;
22107;SDS011;11220;48.812;9.128;2023-07-09T07:20:07;0.20;;;0.20;;
22107;SDS011;11220;48.812;9.128;2023-07-09T07:22:34;0.32;;;0.20;;
22107;SDS011;11220;48.812;9.128;2023-07-09T07:24:59;0.20;;;0.20;;
22107;SDS011;11220;48.812;9.128;2023-07-09T07:27:25;0.40;;;0.40;;
22107;SDS011;11220;48.812;9.128;2023-07-09T07:29:50;0.22;;;0.20;;
22107;SDS011;11220;48.812;9.128;2023-07-09T07:32:16;0.30;;;0.20;;
22107;SDS011;11220;48.812;9.128;2023-07-09T07:34:42;0.20;;;0.20;;
22107;SDS011;11220;48.812;9.128;2023-07-09T07:37:07;0.38;;;0.30;;
22107;SDS011;11220;48.812;9.128;2023-07-09T07:39:33;0.22;;;0.20;;
22107;SDS011;11220;48.812;9.128;2023-07-09T07:41:58;0.30;;;0.30;;
22107;SDS011;11220;48.812;9.128;2023-07-09T07:44:24;0.20;;;0.20;;
22107;SDS011;11220;48.812;9.128;2023-07-09T07:46:49;0.40;;;0.30;;
22107;SDS011;11220;48.812;9.128;2023-07-09T07:49:15;0.32;;;0.30;;
22107;SDS011;11220;48.812;9.128;2023-07-09T07:51:40;0.20;;;0.20;;
22107;SDS011;11220;48.812;9.128;2023-07-09T07:54:06;0.30;;;0.30;;
22107;SDS011;11220;48.812;9.128;2023-07-09T07:56:34;0.47;;;0.40;;
22107;SDS011;11220;48.812;9.128;2023-07-09T07:59:00;0.20;;;0.20;;
22107;SDS011;11220;48.812;9.128;2023-07-09T08:01:27;0.50;;;0.30;;
22107;SDS011;11220;48.812;9.128;2023-07-09T08:03:53;0.32;;;0.30;;
22107;SDS011;11220;48.812;9.128;2023-07-09T08:06:19;0.40;;;0.30;;
22107;SDS011;11220;48.812;9.128;2023-07-09T08:08:44;0.40;;;0.35;;
22107;SDS011;11220;48.812;9.128;2023-07-09T08:11:10;0.47;;;0.30;;
22107;SDS011;11220;48.812;9.128;2023-07-09T08:13:36;0.40;;;0.40;;
22107;SDS011;11220;48.812;9.128;2023-07-09T08:16:03;0.30;;;0.30;;
22107;SDS011;11220;48.812;9.128;2023-07-09T08:18:30;0.38;;;0.38;;
22107;SDS011;11220;48.812;9.128;2023-07-09T08:20:55;0.40;;;0.30;;
22107;SDS011;11220;48.812;9.128;2023-07-09T08:23:21;0.40;;;0.30;;
22107;SDS011;11220;48.812;9.128;2023-07-09T08:25:56;0.57;;;0.40;;
22107;SDS011;11220;48.812;9.128;2023-07-09T08:28:25;0.40;;;0.30;;
22107;SDS011;11220;48.812;9.128;2023-07-09T08:30:54;0.30;;;0.30;;
22107;SDS011;11220;48.812;9.128;2023-07-09T08:33:21;0.40;;;0.40;;
22107;SDS011;11220;48.812;9.128;2023-07-09T08:35:53;0.63;;;0.28;;
22107;SDS011;11220;48.812;9.128;2023-07-09T08:38:19;0.40;;;0.30;;
22107;SDS011;11220;48.812;9.128;2023-07-09T08:40:54;0.30;;;0.30;;
22107;SDS011;11220;48.812;9.128;2023-07-09T08:43:50;0.30;;;0.30;;
22107;SDS011;11220;48.812;9.128;2023-07-09T08:46:35;0.40;;;0.40;;
22107;SDS011;11220;48.812;9.128;2023-07-09T08:49:19;0.30;;;0.30;;
22107;SDS011;11220;48.812;9.128;2023-07-09T08:54:15;0.30;;;0.30;;
22107;SDS011;11220;48.812;9.128;2023-07-09T08:56:50;0.40;;;0.30;;
22107;SDS011;11220;48.812;9.128;2023-07-09T08:59:15;0.40;;;0.30;;
22107;SDS011;11220;48.812;9.128;2023-07-09T09:01:46;0.30;;;0.30;;
22107;SDS011;11220;48.812;9.128;2023-07-09T09:04:20;0.20;;;0.20;;
22107;SDS011;11220;48.812;9.128;2023-07-09T09:09:40;0.30;;;0.30;;
22107;SDS011;11220;48.812;9.128;2023-07-09T09:12:15;0.40;;;0.40;;
22107;SDS011;11220;48.812;9.128;2023-07-09T09:15:15;0.50;;;0.30;;
22107;SDS011;11220;48.812;9.128;2023-07-09T09:17:43;0.50;;;0.40;;
22107;SDS011;11220;48.812;9.128;2023-07-09T09:20:15;0.60;;;0.40;;
22107;SDS011;11220;48.812;9.128;2023-07-09T09:25:27;0.60;;;0.43;;
22107;SDS011;11220;48.812;9.128;2023-07-09T09:27:55;0.52;;;0.30;;
22107;SDS011;11220;48.812;9.128;2023-07-09T09:30:21;0.30;;;0.30;;
22107;SDS011;11220;48.812;9.128;2023-07-09T09:32:56;0.60;;;0.38;;
22107;SDS011;11220;48.812;9.128;2023-07-09T09:35:27;0.22;;;0.22;;
22107;SDS011;11220;48.812;9.128;2023-07-09T09:38:09;0.45;;;0.30;;
22107;SDS011;11220;48.812;9.128;2023-07-09T09:40:36;0.40;;;0.30;;
22107;SDS011;11220;48.812;9.128;2023-07-09T09:43:02;0.40;;;0.40;;
22107;SDS011;11220;48.812;9.128;2023-07-09T09:45:35;0.70;;;0.40;;
22107;SDS011;11220;48.812;9.128;2023-07-09T09:48:13;0.25;;;0.25;;
22107;SDS011;11220;48.812;9.128;2023-07-09T09:50:51;0.38;;;0.30;;
22107;SDS011;11220;48.812;9.128;2023-07-09T09:53:18;0.35;;;0.30;;
22107;SDS011;11220;48.812;9.128;2023-07-09T09:55:46;0.98;;;0.38;;
22107;SDS011;11220;48.812;9.128;2023-07-09T09:58:14;0.52;;;0.38;;
22107;SDS011;11220;48.812;9.128;2023-07-09T10:00:47;0.28;;;0.25;;
22107;SDS011;11220;48.812;9.128;2023-07-09T10:03:15;0.35;;;0.30;;
22107;SDS011;11220;48.812;9.128;2023-07-09T10:05:45;0.40;;;0.30;;
22107;SDS011;11220;48.812;9.128;2023-07-09T10:08:29;1.30;;;0.30;;
22107;SDS011;11220;48.812;9.128;2023-07-09T10:11:12;0.35;;;0.32;;
22107;SDS011;11220;48.812;9.128;2023-07-09T10:13:43;0.38;;;0.30;;
22107;SDS011;11220;48.812;9.128;2023-07-09T10:16:19;0.55;;;0.32;;
22107;SDS011;11220;48.812;9.128;2023-07-09T10:18:59;0.40;;;0.40;;
22107;SDS011;11220;48.812;9.128;2023-07-09T10:21:30;0.30;;;0.30;;
22107;SDS011;11220;48.812;9.128;2023-07-09T10:27:21;0.70;;;0.30;;
22107;SDS011;11220;48.812;9.128;2023-07-09T10:35:58;0.38;;;0.30;;
22107;SDS011;11220;48.812;9.128;2023-07-09T10:38:39;0.30;;;0.30;;
22107;SDS011;11220;48.812;9.128;2023-07-09T10:41:14;0.50;;;0.37;;
22107;SDS011;11220;48.812;9.128;2023-07-09T10:43:44;0.30;;;0.30;;
22107;SDS011;11220;48.812;9.128;2023-07-09T10:46:22;0.38;;;0.30;;
22107;SDS011;11220;48.812;9.128;2023-07-09T10:48:52;0.50;;;0.50;;
22107;SDS011;11220;48.812;9.128;2023-07-09T10:54:01;0.28;;;0.25;;
22107;SDS011;11220;48.812;9.128;2023-07-09T10:56:47;0.63;;;0.35;;
22107;SDS011;11220;48.812;9.128;2023-07-09T11:01:58;0.50;;;0.40;;
22107;SDS011;11220;48.812;9.128;2023-07-09T11:04:43;0.30;;;0.30;;
22107;SDS011;11220;48.812;9.128;2023-07-09T11:07:13;0.32;;;0.32;;
22107;SDS011;11220;48.812;9.128;2023-07-09T11:09:43;0.30;;;0.22;;
22107;SDS011;11220;48.812;9.128;2023-07-09T11:12:12;0.20;;;0.20;;
22107;SDS011;11220;48.812;9.128;2023-07-09T11:14:49;0.47;;;0.35;;
22107;SDS011;11220;48.812;9.128;2023-07-09T11:17:19;0.70;;;0.30;;
22107;SDS011;11220;48.812;9.128;2023-07-09T11:19:47;0.50;;;0.30;;
22107;SDS011;11220;48.812;9.128;2023-07-09T11:22:22;0.55;;;0.55;;
22107;SDS011;11220;48.812;9.128;2023-07-09T11:25:09;0.30;;;0.30;;
22107;SDS011;11220;48.812;9.128;2023-07-09T11:27:52;0.30;;;0.25;;
22107;SDS011;11220;48.812;9.128;2023-07-09T11:30:28;0.30;;;0.30;;
22107;SDS011;11220;48.812;9.128;2023-07-09T11:32:58;0.30;;;0.30;;
22107;SDS011;11220;48.812;9.128;2023-07-09T11:35:27;0.38;;;0.30;;
22107;SDS011;11220;48.812;9.128;2023-07-09T11:38:15;0.47;;;0.35;;
22107;SDS011;11220;48.812;9.128;2023-07-09T11:40:49;0.38;;;0.30;;
22107;SDS011;11220;48.812;9.128;2023-07-09T11:43:31;0.30;;;0.30;;
22107;SDS011;11220;48.812;9.128;2023-07-09T11:46:03;0.40;;;0.40;;
22107;SDS011;11220;48.812;9.128;2023-07-09T11:48:48;0.38;;;0.28;;
22107;SDS011;11220;48.812;9.128;2023-07-09T11:51:16;0.35;;;0.30;;
22107;SDS011;11220;48.812;9.128;2023-07-09T11:53:54;0.30;;;0.30;;
22107;SDS011;11220;48.812;9.128;2023-07-09T11:56:20;0.82;;;0.32;;
22107;SDS011;11220;48.812;9.128;2023-07-09T11:58:50;0.30;;;0.30;;
22107;SDS011;11220;48.812;9.128;2023-07-09T12:01:19;0.35;;;0.30;;
22107;SDS011;11220;48.812;9.128;2023-07-09T12:03:48;0.30;;;0.30;;
22107;SDS011;11220;48.812;9.128;2023-07-09T12:08:49;0.70;;;0.32;;
22107;SDS011;11220;48.812;9.128;2023-07-09T12:11:20;0.30;;;0.30;;
22107;SDS011;11220;48.812;9.128;2023-07-09T12:13:50;0.60;;;0.40;;
22107;SDS011;11220;48.812;9.128;2023-07-09T12:16:28;0.60;;;0.30;;
22107;SDS011;11220;48.812;9.128;2023-07-09T12:18:55;0.20;;;0.20;;
22107;SDS011;11220;48.812;9.128;2023-07-09T12:21:23;0.30;;;0.30;;
22107;SDS011;11220;48.812;9.128;2023-07-09T12:23:50;0.40;;;0.30;;
22107;SDS011;11220;48.812;9.128;2023-07-09T12:26:16;0.30;;;0.30;;
22107;SDS011;11220;48.812;9.128;2023-07-09T12:28:48;0.30;;;0.30;;
22107;SDS011;11220;48.812;9.128;2023-07-09T12:31:26;0.47;;;0.30;;
22107;SDS011;11220;48.812;9.128;2023-07-09T12:33:57;0.60;;;0.30;;
22107;SDS011;11220;48.812;9.128;2023-07-09T12:36:24;0.30;;;0.30;;
22107;SDS011;11220;48.812;9.128;2023-07-09T12:38:52;0.50;;;0.40;;
22107;SDS011;11220;48.812;9.128;2023-07-09T12:41:24;0.57;;;0.30;;
22107;SDS011;11220;48.812;9.128;2023-07-09T12:43:53;0.52;;;0.35;;
22107;SDS011;11220;48.812;9.128;2023-07-09T12:46:20;0.40;;;0.30;;
22107;SDS011;11220;48.812;9.128;2023-07-09T12:48:47;0.30;;;0.20;;
22107;SDS011;11220;48.812;9.128;2023-07-09T12:51:15;0.32;;;0.32;;
22107;SDS011;11220;48.812;9.128;2023-07-09T12:53:45;0.35;;;0.28;;
22107;SDS011;11220;48.812;9.128;2023-07-09T12:56:12;0.38;;;0.38;;
22107;SDS011;11220;48.812;9.128;2023-07-09T12:58:40;0.43;;;0.38;;
22107;SDS011;11220;48.812;9.128;2023-07-09T13:01:13;0.40;;;0.30;;
22107;SDS011;11220;48.812;9.128;2023-07-09T13:03:41;0.30;;;0.30;;
22107;SDS011;11220;48.812;9.128;2023-07-09T13:06:20;0.20;;;0.20;;
22107;SDS011;11220;48.812;9.128;2023-07-09T13:08:59;0.60;;;0.30;;
22107;SDS011;11220;48.812;9.128;2023-07-09T13:11:26;0.50;;;0.30;;
22107;SDS011;11220;48.812;9.128;2023-07-09T13:13:59;0.40;;;0.40;;
22107;SDS011;11220;48.812;9.128;2023-07-09T13:16:27;0.30;;;0.30;;
22107;SDS011;11220;48.812;9.128;2023-07-09T13:18:53;0.30;;;0.30;;
22107;SDS011;11220;48.812;9.128;2023-07-09T13:21:19;0.22;;;0.20;;
22107;SDS011;11220;48.812;9.128;2023-07-09T13:23:46;0.50;;;0.30;;
22107;SDS011;11220;48.812;9.128;2023-07-09T13:26:12;0.30;;;0.25;;
22107;SDS011;11220;48.812;9.128;2023-07-09T13:28:38;0.17;;;0.17;;
22107;SDS011;11220;48.812;9.128;2023-07-09T13:31:09;0.50;;;0.40;;
22107;SDS011;11220;48.812;9.128;2023-07-09T13:33:38;0.30;;;0.30;;
22107;SDS011;11220;48.812;9.128;2023-07-09T13:36:04;0.30;;;0.30;;
22107;SDS011;11220;48.812;9.128;2023-07-09T13:38:31;0.20;;;0.20;;
22107;SDS011;11220;48.812;9.128;2023-07-09T13:40:59;0.52;;;0.50;;
22107;SDS011;11220;48.812;9.128;2023-07-09T13:43:39;0.30;;;0.20;;
22107;SDS011;11220;48.812;9.128;2023-07-09T13:46:08;0.13;;;0.10;;
22107;SDS011;11220;48.812;9.128;2023-07-09T13:48:35;0.32;;;0.20;;
22107;SDS011;11220;48.812;9.128;2023-07-09T13:51:05;0.50;;;0.30;;
22107;SDS011;11220;48.812;9.128;2023-07-09T13:53:42;0.20;;;0.20;;
22107;SDS011;11220;48.812;9.128;2023-07-09T13:56:08;0.50;;;0.30;;
22107;SDS011;11220;48.812;9.128;2023-07-09T13:58:33;0.30;;;0.20;;
22107;SDS011;11220;48.812;9.128;2023-07-09T14:00:59;0.40;;;0.30;;
22107;SDS011;11220;48.812;9.128;2023-07-09T14:03:34;0.30;;;0.30;;
22107;SDS011;11220;48.812;9.128;2023-07-09T14:06:00;0.28;;;0.20;;
22107;SDS011;11220;48.812;9.128;2023-07-09T14:08:26;0.30;;;0.28;;
22107;SDS011;11220;48.812;9.128;2023-07-09T14:10:51;0.20;;;0.20;;
22107;SDS011;11220;48.812;9.128;2023-07-09T14:13:18;0.40;;;0.30;;
22107;SDS011;11220;48.812;9.128;2023-07-09T14:15:46;0.50;;;0.30;;
22107;SDS011;11220;48.812;9.128;2023-07-09T14:18:13;0.25;;;0.20;;
22107;SDS011;11220;48.812;9.128;2023-07-09T14:20:40;0.30;;;0.20;;
22107;SDS011;11220;48.812;9.128;2023-07-09T14:23:07;0.20;;;0.20;;
22107;SDS011;11220;48.812;9.128;2023-07-09T14:25:35;0.52;;;0.22;;
22107;SDS011;11220;48.812;9.128;2023-07-09T14:28:01;0.68;;;0.28;;
22107;SDS011;11220;48.812;9.128;2023-07-09T14:30:29;0.40;;;0.20;;
22107;SDS011;11220;48.812;9.128;2023-07-09T14:32:55;0.38;;;0.30;;
22107;SDS011;11220;48.812;9.128;2023-07-09T14:35:22;0.40;;;0.28;;
22107;SDS011;11220;48.812;9.128;2023-07-09T14:37:49;0.57;;;0.30;;
22107;SDS011;11220;48.812;9.128;2023-07-09T14:40:17;0.25;;;0.25;;
22107;SDS011;11220;48.812;9.128;2023-07-09T14:42:44;0.22;;;0.22;;
22107;SDS011;11220;48.812;9.128;2023-07-09T14:45:26;0.68;;;0.40;;
22107;SDS011;11220;48.812;9.128;2023-07-09T14:47:55;0.17;;;0.17;;
22107;SDS011;11220;48.812;9.128;2023-07-09T14:50:22;0.28;;;0.28;;
22107;SDS011;11220;48.812;9.128;2023-07-09T14:52:48;0.50;;;0.40;;
22107;SDS011;11220;48.812;9.128;2023-07-09T14:55:15;0.60;;;0.28;;
22107;SDS011;11220;48.812;9.128;2023-07-09T14:57:42;0.20;;;0.10;;
22107;SDS011;11220;48.812;9.128;2023-07-09T15:00:12;0.43;;;0.40;;
22107;SDS011;11220;48.812;9.128;2023-07-09T15:02:45;0.40;;;0.30;;
22107;SDS011;11220;48.812;9.128;2023-07-09T15:05:22;0.30;;;0.30;;
22107;SDS011;11220;48.812;9.128;2023-07-09T15:07:49;0.35;;;0.28;;
22107;SDS011;11220;48.812;9.128;2023-07-09T15:10:17;0.38;;;0.30;;
22107;SDS011;11220;48.812;9.128;2023-07-09T15:12:47;0.20;;;0.20;;
22107;SDS011;11220;48.812;9.128;2023-07-09T15:17:41;0.30;;;0.28;;
22107;SDS011;11220;48.812;9.128;2023-07-09T15:20:13;0.38;;;0.30;;
22107;SDS011;11220;48.812;9.128;2023-07-09T15:22:43;0.20;;;0.20;;
22107;SDS011;11220;48.812;9.128;2023-07-09T15:25:20;0.63;;;0.40;;
22107;SDS011;11220;48.812;9.128;2023-07-09T15:27:50;0.50;;;0.30;;
22107;SDS011;11220;48.812;9.128;2023-07-09T15:30:18;0.20;;;0.20;;
22107;SDS011;11220;48.812;9.128;2023-07-09T15:32:58;0.40;;;0.40;;